Map

Track Data

SID SEASON NUMBER BASIN SUBBASIN NAME ISO_TIME NATURE LAT LON WMO_WIND WMO_PRES WMO_AGENCY TRACK_TYPE DIST2LAND LANDFALL IFLAG USA_AGENCY USA_ATCF_ID USA_LAT USA_LON USA_RECORD USA_STATUS USA_WIND USA_PRES USA_SSHS USA_R34_NE USA_R34_SE USA_R34_SW USA_R34_NW USA_R50_NE USA_R50_SE USA_R50_SW USA_R50_NW USA_R64_NE USA_R64_SE USA_R64_SW USA_R64_NW USA_POCI USA_ROCI USA_RMW USA_EYE TOKYO_LAT TOKYO_LON TOKYO_GRADE TOKYO_WIND TOKYO_PRES TOKYO_R50_DIR TOKYO_R50_LONG TOKYO_R50_SHORT TOKYO_R30_DIR TOKYO_R30_LONG TOKYO_R30_SHORT TOKYO_LAND CMA_LAT CMA_LON CMA_CAT CMA_WIND CMA_PRES HKO_LAT HKO_LON HKO_CAT HKO_WIND HKO_PRES NEWDELHI_LAT NEWDELHI_LON NEWDELHI_GRADE NEWDELHI_WIND NEWDELHI_PRES NEWDELHI_CI NEWDELHI_DP NEWDELHI_POCI REUNION_LAT REUNION_LON REUNION_TYPE REUNION_WIND REUNION_PRES REUNION_TNUM REUNION_CI REUNION_RMW REUNION_R34_NE REUNION_R34_SE REUNION_R34_SW REUNION_R34_NW REUNION_R50_NE REUNION_R50_SE REUNION_R50_SW REUNION_R50_NW REUNION_R64_NE REUNION_R64_SE REUNION_R64_SW REUNION_R64_NW BOM_LAT BOM_LON BOM_TYPE BOM_WIND BOM_PRES BOM_TNUM BOM_CI BOM_RMW BOM_R34_NE BOM_R34_SE BOM_R34_SW BOM_R34_NW BOM_R50_NE BOM_R50_SE BOM_R50_SW BOM_R50_NW BOM_R64_NE BOM_R64_SE BOM_R64_SW BOM_R64_NW BOM_ROCI BOM_POCI BOM_EYE BOM_POS_METHOD BOM_PRES_METHOD NADI_LAT NADI_LON NADI_CAT NADI_WIND NADI_PRES WELLINGTON_LAT WELLINGTON_LON WELLINGTON_WIND WELLINGTON_PRES DS824_LAT DS824_LON DS824_STAGE DS824_WIND DS824_PRES TD9636_LAT TD9636_LON TD9636_STAGE TD9636_WIND TD9636_PRES TD9635_LAT TD9635_LON TD9635_WIND TD9635_PRES TD9635_ROCI NEUMANN_LAT NEUMANN_LON NEUMANN_CLASS NEUMANN_WIND NEUMANN_PRES MLC_LAT MLC_LON MLC_CLASS MLC_WIND MLC_PRES USA_GUST BOM_GUST BOM_GUST_PER REUNION_GUST REUNION_GUST_PER USA_SEAHGT USA_SEARAD_NE USA_SEARAD_SE USA_SEARAD_SW USA_SEARAD_NW STORM_SPEED STORM_DIR
1997261N13114 1997 84 WP MM FRITZ 1997-09-17 12:00:00 NR 13.0000 114.000 main 488 488 O_____________ jtwc_wp WP221997 13.0000 114.000 15 -1 5 54
1997261N13114 1997 84 WP MM FRITZ 1997-09-17 15:00:00 NR 13.1451 114.207 main 510 510 P_____________ WP221997 13.1451 114.207 15 -1 4 44
1997261N13114 1997 84 WP MM FRITZ 1997-09-17 18:00:00 NR 13.3000 114.300 main 522 512 O_____________ jtwc_wp WP221997 13.3000 114.300 15 -1 3 0
1997261N13114 1997 84 WP MM FRITZ 1997-09-17 21:00:00 NR 13.4650 114.203 main 513 493 P_____________ WP221997 13.4650 114.203 15 -1 4 316
1997261N13114 1997 84 WP MM FRITZ 1997-09-18 00:00:00 NR 13.6000 114.000 main 493 474 O_____________ jtwc_wp WP221997 13.6000 114.000 15 -1 4 299
1997261N13114 1997 84 WP MM FRITZ 1997-09-18 03:00:00 NR 13.6800 113.808 main 474 452 P_____________ WP221997 13.6800 113.808 17 -1 4 284
1997261N13114 1997 84 WP MM FRITZ 1997-09-18 06:00:00 NR 13.7000 113.600 main 452 431 O_____________ jtwc_wp WP221997 13.7000 113.600 20 -1 4 269
1997261N13114 1997 84 WP MM FRITZ 1997-09-18 09:00:00 NR 13.6725 113.400 main 431 408 P_____________ WP221997 13.6725 113.400 20 -1 4 256
1997261N13114 1997 84 WP MM FRITZ 1997-09-18 12:00:00 NR 13.6000 113.200 main 408 385 O_____________ jtwc_wp WP221997 13.6000 113.200 20 -1 4 247
1997261N13114 1997 84 WP MM FRITZ 1997-09-18 15:00:00 NR 13.5075 112.992 main 385 361 P_____________ WP221997 13.5075 112.992 20 -1 4 243
1997261N13114 1997 84 WP MM FRITZ 1997-09-18 18:00:00 NR 13.4000 112.800 main 361 349 O_____________ jtwc_wp WP221997 13.4000 112.800 20 -1 4 239
1997261N13114 1997 84 WP MM FRITZ 1997-09-18 21:00:00 NR 13.3000 112.643 main 338 326 P_____________ WP221997 13.3000 112.643 20 -1 4 236
1997261N13114 1997 84 WP MM FRITZ 1997-09-19 00:00:00 NR 13.2000 112.500 main 326 315 O_____________ jtwc_wp WP221997 13.2000 112.500 20 -1 3 235
1997261N13114 1997 84 WP MM FRITZ 1997-09-19 03:00:00 NR 13.1000 112.350 main 315 292 P_____________ WP221997 13.1000 112.350 20 -1 4 236
1997261N13114 1997 84 WP MM FRITZ 1997-09-19 06:00:00 NR 13.0000 112.200 main 292 281 O_____________ jtwc_wp WP221997 13.0000 112.200 20 -1 4 237
1997261N13114 1997 84 WP MM FRITZ 1997-09-19 09:00:00 NR 12.9075 112.050 main 281 260 P_____________ WP221997 12.9075 112.050 20 -1 4 236
1997261N13114 1997 84 WP MM FRITZ 1997-09-19 12:00:00 NR 12.8000 111.900 main 260 249 O_____________ jtwc_wp WP221997 12.8000 111.900 20 -1 4 228
1997261N13114 1997 84 WP MM FRITZ 1997-09-19 15:00:00 NR 12.6425 111.750 main 249 228 P_____________ WP221997 12.6425 111.750 20 -1 4 224
1997261N13114 1997 84 WP MM FRITZ 1997-09-19 18:00:00 NR 12.5000 111.600 main 228 217 O_____________ jtwc_wp WP221997 12.5000 111.600 20 -1 4 235
1997261N13114 1997 84 WP MM FRITZ 1997-09-19 21:00:00 NR 12.4350 111.450 main 218 196 P_____________ WP221997 12.4350 111.450 20 -1 3 251
1997261N13114 1997 84 WP MM FRITZ 1997-09-20 00:00:00 NR 12.4000 111.300 main 196 186 O_____________ jtwc_wp WP221997 12.4000 111.300 20 -1 3 250
1997261N13114 1997 84 WP MM FRITZ 1997-09-20 03:00:00 NR 12.3275 111.150 main 177 166 P_____________ WP221997 12.3275 111.150 20 -1 3 251
1997261N13114 1997 84 WP MM FRITZ 1997-09-20 06:00:00 NR 12.3000 111.000 main 166 153 O_____________ jtwc_wp WP221997 12.3000 111.000 20 -1 3 280
1997261N13114 1997 84 WP MM FRITZ 1997-09-20 09:00:00 NR 12.3775 110.850 main 153 130 P_____________ WP221997 12.3775 110.850 20 -1 4 304
1997261N13114 1997 84 WP MM FRITZ 1997-09-20 12:00:00 NR 12.5000 110.700 main 130 119 O_____________ jtwc_wp WP221997 12.5000 110.700 20 -1 4 304
1997261N13114 1997 84 WP MM FRITZ 1997-09-20 15:00:00 NR 12.5850 110.542 main 108 98 P_____________ WP221997 12.5850 110.542 22 -1 4 304
1997261N13114 1997 84 WP MM FRITZ 1997-09-20 18:00:00 NR 12.7000 110.400 main 98 86 O_____________ jtwc_wp WP221997 12.7000 110.400 25 -1 4 321
1997261N13114 1997 84 WP MM FRITZ 1997-09-20 21:00:00 NR 12.8775 110.300 main 86 76 P_____________ WP221997 12.8775 110.300 25 -1 4 334
1997261N13114 1997 84 WP MM FRITZ 1997-09-21 00:00:00 NR 13.1000 110.200 main 79 73 O_____________ jtwc_wp WP221997 13.1000 110.200 25 -1 5 331
1997261N13114 1997 84 WP MM FRITZ 1997-09-21 03:00:00 NR 13.3275 110.043 main 70 64 P_____________ WP221997 13.3275 110.043 25 -1 8 335
1997261N13114 1997 84 WP MM FRITZ 1997-09-21 06:00:00 TS 13.8200 109.860 1006 tokyo main 64 53 OO____________ jtwc_wp WP221997 13.6000 109.900 25 -1 14.7000 109.700 2 1006 0 0 0 9 344
1997261N13114 1997 84 WP MM FRITZ 1997-09-21 09:00:00 TS 14.2167 109.787 main 63 63 PP____________ WP221997 13.9500 109.805 25 -1 14.7500 109.750 2 1006 0 0 7 355
1997261N13114 1997 84 WP MM FRITZ 1997-09-21 12:00:00 TS 14.5143 109.800 1006 tokyo main 75 75 OO____________ jtwc_wp WP221997 14.3000 109.800 25 -1 14.8000 109.800 2 1006 0 0 0 5 10
1997261N13114 1997 84 WP MM FRITZ 1997-09-21 15:00:00 TS 14.7112 109.877 main 86 86 PP____________ WP221997 14.5725 109.905 25 -1 14.8500 109.850 2 1006 0 0 4 30
1997261N13114 1997 84 WP MM FRITZ 1997-09-21 18:00:00 TS 14.8500 110.000 1006 tokyo main 99 97 OO____________ jtwc_wp WP221997 14.8000 110.100 25 -1 14.9000 109.900 2 1006 0 0 0 4 43
1997261N13114 1997 84 WP MM FRITZ 1997-09-21 21:00:00 TS 14.9863 110.146 main 112 112 PP____________ WP221997 15.0226 110.350 25 -1 14.9500 109.943 2 1006 0 0 5 50
1997261N13114 1997 84 WP MM FRITZ 1997-09-22 00:00:00 TS 15.1556 110.378 1006 tokyo main 150 150 OOO___________ jtwc_wp WP221997 15.2000 110.600 25 -1 15.0000 110.000 2 1006 0 0 0 15.6000 111.000 0 19 1006 5 54
1997261N13114 1997 84 WP MM FRITZ 1997-09-22 03:00:00 TS 15.2660 110.543 main 164 164 PPP___________ WP221997 15.3150 110.773 27 -1 15.0500 110.085 2 1006 0 0 15.6000 111.000 0 19 1006 3 56
1997261N13114 1997 84 WP MM FRITZ 1997-09-22 06:00:00 TS 15.3455 110.673 1006 tokyo main 184 184 OOO___________ jtwc_wp WP221997 15.4000 110.900 30 -1 15.1000 110.200 2 1006 0 0 0 15.6000 111.000 0 19 1006 3 57
1997261N13114 1997 84 WP MM FRITZ 1997-09-22 09:00:00 TS 15.4167 110.786 main 198 198 PPP___________ WP221997 15.5000 111.008 30 -1 15.1500 110.350 2 1006 0 0 15.6000 111.000 0 19 1006 2 57
1997261N13114 1997 84 WP MM FRITZ 1997-09-22 12:00:00 TS 15.4667 110.867 1006 tokyo main 213 213 OOO___________ jtwc_wp WP221997 15.6000 111.100 30 -1 15.2000 110.500 2 1006 0 0 0 15.6000 111.000 0 19 1006 2 55
1997261N13114 1997 84 WP MM FRITZ 1997-09-22 15:00:00 TS 15.5217 110.938 main 213 213 PPP___________ WP221997 15.7075 111.215 32 -1 15.2575 110.600 2 1005 0 0 15.6000 111.000 0 21 1005 2 52
1997261N13114 1997 84 WP MM FRITZ 1997-09-22 18:00:00 TS 15.5667 111.000 1004 tokyo main 227 227 OOO___________ jtwc_wp WP221997 15.8000 111.300 35 0 15.3000 110.700 2 1004 0 0 0 15.6000 111.000 1 23 1004 1 62
1997261N13114 1997 84 WP MM FRITZ 1997-09-22 21:00:00 TS 15.5858 111.060 main 237 237 PPP___________ WP221997 15.8575 111.323 40 0 15.3000 110.858 2 1003 0 0 15.6000 111.000 1 26 1004 1 57
1997261N13114 1997 84 WP MM FRITZ 1997-09-23 00:00:00 TS 15.6308 111.100 1002 tokyo main 237 237 OOOO__________ jtwc_wp WP221997 15.9000 111.300 45 0 15.3000 111.000 2 1002 0 0 0 15.6000 111.000 1 29 1004 16.0000 111.100 TD 30 1000 1 25
1997261N13114 1997 84 WP MM FRITZ 1997-09-23 03:00:00 TS 15.6936 111.113 main 242 242 PPPP__________ WP221997 15.9575 111.258 45 0 15.3350 111.065 2 1001 0 0 15.6000 111.000 1 29 1003 16.0700 111.145 TD 30 1000 1 12
1997261N13114 1997 84 WP MM FRITZ 1997-09-23 06:00:00 TS 15.7533 111.120 1000 tokyo main 245 245 OOOO__________ jtwc_wp WP221997 16.0000 111.200 45 0 15.4000 111.100 2 1000 0 0 0 15.6000 111.000 1 29 1002 16.1000 111.200 TD 30 1000 1 18
1997261N13114 1997 84 WP MM FRITZ 1997-09-23 09:00:00 TS 15.7931 111.145 main 245 245 PPPP__________ WP221997 16.0075 111.150 45 0 15.5000 111.165 2 999 0 0 15.6000 111.000 1 31 1000 16.0650 111.265 TD 32 999 1 33
1997261N13114 1997 84 WP MM FRITZ 1997-09-23 12:00:00 TS 15.8000 111.150 35 998 tokyo main 255 245 OOOO__________ jtwc_wp WP221997 16.0000 111.100 45 0 15.6000 111.200 3 35 998 0 9 80 80 0 15.6000 111.000 2 34 998 16.0000 111.300 TS 35 998 0 0
1997261N13114 1997 84 WP MM FRITZ 1997-09-23 15:00:00 TS 15.8019 111.129 main 245 245 PPPP__________ WP221997 16.0000 111.058 50 0 15.6575 111.165 3 35 998 0 9 80 80 15.5925 111.015 2 36 996 15.9575 111.280 TS 37 995 1 270
1997261N13114 1997 84 WP MM FRITZ 1997-09-23 18:00:00 TS 15.8000 111.075 35 998 tokyo main 245 234 OOOO__________ jtwc_wp WP221997 16.0000 111.000 55 0 15.7000 111.100 3 35 998 0 9 80 80 0 15.6000 111.000 2 38 995 15.9000 111.200 TS 40 992 1 268
1997261N13114 1997 84 WP MM FRITZ 1997-09-23 21:00:00 TS 15.7981 111.007 main 234 224 PPPP__________ WP221997 16.0000 110.923 60 0 15.7574 111.087 3 37 996 0 9 90 90 15.6425 110.938 2 41 992 15.7925 111.080 TS 42 991 2 270
1997261N13114 1997 84 WP MM FRITZ 1997-09-24 00:00:00 TS 15.8000 110.875 40 994 tokyo main 224 204 OOOO__________ jtwc_wp WP221997 16.0000 110.800 65 1 15.8000 111.000 3 40 994 0 9 100 100 0 15.7000 110.800 2 44 990 15.7000 110.900 TS 45 990 3 273
1997261N13114 1997 84 WP MM FRITZ 1997-09-24 03:00:00 TS 15.8163 110.651 main 204 174 PPPP__________ WP221997 16.0000 110.623 70 1 15.8226 110.738 3 42 992 0 9 105 105 15.7575 110.580 2 44 990 15.6850 110.665 TS 47 987 5 273
1997261N13114 1997 84 WP MM FRITZ 1997-09-24 06:00:00 TS 15.8250 110.375 45 990 tokyo main 174 145 OOOO__________ jtwc_wp WP221997 16.0000 110.400 75 1 15.8000 110.400 3 45 990 0 9 110 110 0 15.8000 110.300 2 44 990 15.7000 110.400 STS 50 985 5 269
1997261N13114 1997 84 WP MM FRITZ 1997-09-24 09:00:00 TS 15.8037 110.100 main 145 117 PPPP__________ WP221997 16.0000 110.158 75 1 15.7000 110.100 3 47 987 0 9 120 120 15.8150 109.993 2 46 987 15.7000 110.150 STS 52 982 5 265
1997261N13114 1997 84 WP MM FRITZ 1997-09-24 12:00:00 TS 15.7750 109.825 50 985 tokyo main 117 100 OOOO__________ jtwc_wp WP221997 16.0000 109.900 75 1 15.6000 109.800 4 50 985 0 9 130 130 0 15.8000 109.700 3 48 985 15.7000 109.900 STS 55 980 5 265
1997261N13114 1997 84 WP MM FRITZ 1997-09-24 15:00:00 TS 15.7550 109.573 main 100 69 PPPP__________ WP221997 15.9999 109.665 75 1 15.5700 109.485 4 52 982 0 9 135 135 15.7499 109.492 3 51 982 15.7000 109.650 STS 57 977 5 267
1997261N13114 1997 84 WP MM FRITZ 1997-09-24 18:00:00 TS 15.7500 109.325 55 980 tokyo main 77 61 OOOO__________ jtwc_wp WP221997 16.0000 109.400 75 1 15.6000 109.200 4 55 980 9 50 50 9 140 140 0 15.7000 109.300 3 54 980 15.7000 109.400 STS 60 975 5 273
1997261N13114 1997 84 WP MM FRITZ 1997-09-24 21:00:00 TS 15.7787 109.070 main 61 39 PPPP__________ WP221997 16.0150 109.073 75 1 15.6999 108.993 4 55 980 9 50 50 9 140 140 15.6925 109.058 3 54 980 15.7074 109.158 STS 57 977 5 276
1997261N13114 1997 84 WP MM FRITZ 1997-09-25 00:00:00 TS 15.8000 108.800 55 980 tokyo main 39 10 OOOO__________ jtwc_wp WP221997 16.0000 108.700 75 1 15.8000 108.800 4 55 980 9 50 50 9 140 140 0 15.7000 108.800 3 54 980 15.7000 108.900 STS 55 980 5 270
1997261N13114 1997 84 WP MM FRITZ 1997-09-25 03:00:00 TS 15.7812 108.519 main 10 0 PPPP__________ WP221997 15.9225 108.307 70 1 15.8299 108.580 4 50 985 9 9 130 130 15.7149 108.573 3 51 982 15.6575 108.615 STS 52 982 6 263
1997261N13114 1997 84 WP MM FRITZ 1997-09-25 06:00:00 TS 15.7250 108.200 45 990 tokyo main 0 0 OOOO__________ jtwc_wp WP221997 15.8000 107.900 65 1 15.8000 108.300 3 45 990 0 9 120 120 0 15.7000 108.300 3 48 985 15.6000 108.300 STS 50 985 7 257
1997261N13114 1997 84 WP MM FRITZ 1997-09-25 09:00:00 TS 15.6343 107.831 main 0 0 PPPP__________ WP221997 15.6649 107.500 60 0 15.7224 107.945 3 40 993 0 9 100 100 15.6001 107.915 3 41 990 15.5499 107.965 STS 45 988 8 256
1997261N13114 1997 84 WP MM FRITZ 1997-09-25 12:00:00 TS 15.5286 107.407 35 996 tokyo main 0 0 OOOO__________ jtwc_wp WP221997 15.5000 107.100 55 0 15.6000 107.500 3 35 996 0 9 80 80 0 15.5000 107.500 2 34 995 15.5000 107.600 TS 40 992 9 255
1997261N13114 1997 84 WP MM FRITZ 1997-09-25 15:00:00 TS 15.3968 106.922 main 0 0 PPPP__________ WP221997 15.3075 106.693 47 0 15.4204 106.905 3 35 998 0 9 65 65 15.4750 107.133 2 31 995 15.4502 107.207 TS 35 996 10 253
1997261N13114 1997 84 WP MM FRITZ 1997-09-25 18:00:00 TS 15.2500 106.440 35 1000 tokyo main 0 0 OOOO__________ jtwc_wp WP221997 15.1000 106.300 40 0 15.3000 106.400 3 35 1000 0 9 50 50 0 15.5000 106.800 1 29 996 15.4000 106.800 TD 30 1000 9 251
1997261N13114 1997 84 WP MM FRITZ 1997-09-25 21:00:00 TS 15.1273 106.088 main 0 0 PP____________ WP221997 14.8999 105.943 35 0 15.3548 106.233 3 1003 0 9 1 TD 5 259
1997261N13114 1997 84 WP MM FRITZ 1997-09-26 00:00:00 TS 15.1571 105.943 1006 tokyo main 0 0 OO____________ jtwc_wp WP221997 14.7000 105.600 30 -1 15.5000 106.200 2 1006 0 0 0 3 301
1997261N13114 1997 84 WP MM FRITZ 1997-09-26 03:00:00 TS 15.2817 105.817 main 0 0 PP____________ WP221997 14.5001 105.252 25 -1 15.6725 106.100 2 1006 0 0 4 335
1997261N13114 1997 84 WP MM FRITZ 1997-09-26 06:00:00 TS 15.5000 105.780 1006 tokyo main 0 0 OO____________ jtwc_wp WP221997 14.3000 104.900 20 -1 15.8000 106.000 2 1006 0 0 0 5 8
1997261N13114 1997 84 WP MM FRITZ 1997-09-26 09:00:00 TS 15.7875 105.900 main 0 0 _P____________ WP221997 -1 15.7875 105.900 2 1007 0 0 2 8
1997261N13114 1997 84 WP MM FRITZ 1997-09-26 12:00:00 TS 15.7000 105.800 1008 tokyo main 0 0 _O____________ -1 15.7000 105.800 2 1008 0 0 0 3 229
1997261N13114 1997 84 WP MM FRITZ 1997-09-26 15:00:00 TS 15.6150 105.692 main 0 0 _P____________ -1 15.6150 105.692 2 1008 0 0 3 224
1997261N13114 1997 84 WP MM FRITZ 1997-09-26 18:00:00 TS 15.5000 105.600 1008 tokyo main 0 0 _O____________ -1 15.5000 105.600 2 1008 0 0 0 3 210
1997261N13114 1997 84 WP MM FRITZ 1997-09-26 21:00:00 TS 15.3575 105.540 main 0 0 _P____________ -1 15.3575 105.540 2 1009 0 0 3 197
1997261N13114 1997 84 WP MM FRITZ 1997-09-27 00:00:00 TS 15.2000 105.500 1010 tokyo main 0 _O____________ -1 15.2000 105.500 2 1010 0 0 0 3 195

Digital Typhoon Data and Search

About IBTrACS Database

This database is a web-friendly format of International Best Track Archive for Climate Stewardship (IBTrACS), a global best track data archive curated by NOAA dating back to 1842.

Updated: 2021-10-08